createdAt,value
2023-01-17T00:01:17.909Z,1423
2023-01-17T00:06:48.520Z,1367
2023-01-17T00:12:19.022Z,1368
2023-01-17T00:17:49.506Z,1372
2023-01-17T00:23:19.104Z,1407
2023-01-17T00:28:49.451Z,1407
2023-01-17T00:34:19.931Z,1432
2023-01-17T00:39:50.553Z,1474
2023-01-17T00:45:20.995Z,1481
2023-01-17T00:50:51.504Z,1471
2023-01-17T00:56:20.999Z,1501
2023-01-17T01:01:52.324Z,1511
2023-01-17T01:07:20.947Z,1504
2023-01-17T01:12:51.459Z,1497
2023-01-17T01:18:21.902Z,1517
2023-01-17T01:23:52.489Z,1520
2023-01-17T01:29:23.024Z,1525
2023-01-17T01:34:53.475Z,1530
2023-01-17T01:40:24.080Z,1549
2023-01-17T01:45:54.650Z,1539
2023-01-17T01:51:25.032Z,1591
2023-01-17T01:56:54.512Z,1597
2023-01-17T02:02:25.047Z,1589
2023-01-17T02:07:54.488Z,1523
2023-01-17T02:13:24.944Z,1547
2023-01-17T02:18:55.585Z,1554
2023-01-17T02:24:26.021Z,1559
2023-01-17T02:29:56.580Z,1573
2023-01-17T02:35:27.194Z,1609
2023-01-17T02:40:57.644Z,1563
2023-01-17T02:46:28.131Z,1569
2023-01-17T02:51:58.904Z,1578
2023-01-17T02:57:29.342Z,1566
2023-01-17T03:02:59.433Z,1598
2023-01-17T03:08:29.336Z,1601
2023-01-17T03:13:59.803Z,1594
2023-01-17T03:19:30.359Z,1591
2023-01-17T03:25:00.861Z,1594
2023-01-17T03:30:31.415Z,1619
2023-01-17T03:36:02.059Z,1639
2023-01-17T03:41:32.562Z,1637
2023-01-17T03:47:03.028Z,1642
2023-01-17T03:52:33.618Z,1632
2023-01-17T03:59:12.973Z,1642
2023-01-17T04:04:40.762Z,1644
2023-01-17T04:10:11.230Z,1653
2023-01-17T04:15:41.749Z,1649
2023-01-17T04:21:12.319Z,1674
2023-01-17T04:26:42.808Z,1666
2023-01-17T04:32:13.426Z,1701
2023-01-17T04:37:44.000Z,1728
2023-01-17T04:43:14.458Z,1737
2023-01-17T04:48:43.999Z,1765
2023-01-17T04:54:14.439Z,1772
2023-01-17T04:59:44.911Z,1794
2023-01-17T05:05:15.542Z,1731
2023-01-17T05:10:46.097Z,1748
2023-01-17T05:16:16.698Z,1688
2023-01-17T05:21:47.205Z,1736
2023-01-17T05:27:17.650Z,1525
2023-01-17T05:32:47.156Z,1466
2023-01-17T05:38:17.653Z,1453
2023-01-17T05:43:48.097Z,1405
2023-01-17T05:49:17.592Z,1367
2023-01-17T05:54:48.108Z,1267
2023-01-17T06:00:17.559Z,1162
2023-01-17T06:05:48.035Z,1062
2023-01-17T06:11:18.536Z,1018
2023-01-17T06:16:47.987Z,974
2023-01-17T06:22:18.489Z,932
2023-01-17T06:27:49.099Z,900
2023-01-17T06:33:19.536Z,879
2023-01-17T06:38:50.027Z,846
2023-01-17T06:44:19.551Z,819
2023-01-17T06:49:49.971Z,791
2023-01-17T06:55:20.476Z,753
2023-01-17T07:00:50.153Z,724
2023-01-17T07:06:20.416Z,704
2023-01-17T07:11:50.027Z,684
2023-01-17T07:17:20.538Z,678
2023-01-17T07:22:51.020Z,670
2023-01-17T07:28:21.587Z,653
2023-01-17T07:33:52.095Z,638
2023-01-17T07:39:22.588Z,625
2023-01-17T07:44:53.149Z,613
2023-01-17T07:50:23.650Z,603
2023-01-17T07:55:54.222Z,595
2023-01-17T08:01:24.820Z,589
2023-01-17T08:06:55.191Z,584
2023-01-17T08:12:25.742Z,581
2023-01-17T08:17:56.210Z,580
2023-01-17T08:23:26.759Z,573
2023-01-17T08:28:57.337Z,565
2023-01-17T08:34:27.808Z,563
2023-01-17T08:39:58.452Z,556
2023-01-17T08:45:28.936Z,550
2023-01-17T08:50:59.423Z,553
2023-01-17T08:56:30.075Z,546
2023-01-17T09:02:00.742Z,551
2023-01-17T09:07:30.984Z,547
2023-01-17T09:13:01.637Z,543
2023-01-17T09:18:32.071Z,544
2023-01-17T09:24:02.714Z,538
2023-01-17T09:29:33.164Z,539
2023-01-17T09:35:03.607Z,536
2023-01-17T09:40:34.331Z,538
2023-01-17T09:46:04.870Z,532
2023-01-17T09:51:35.280Z,536
2023-01-17T09:57:05.855Z,545
2023-01-17T10:02:36.471Z,543
2023-01-17T10:08:06.804Z,550
2023-01-17T10:13:37.400Z,564
2023-01-17T10:19:07.908Z,576
2023-01-17T10:24:38.473Z,669
2023-01-17T10:30:08.943Z,687
2023-01-17T10:35:39.443Z,705
2023-01-17T10:41:08.901Z,746
2023-01-17T10:46:39.368Z,771
2023-01-17T10:52:09.862Z,791
2023-01-17T10:57:40.490Z,903
2023-01-17T11:03:10.957Z,976
2023-01-17T11:08:41.725Z,960
2023-01-17T11:14:12.035Z,981
2023-01-17T11:19:42.506Z,940
2023-01-17T11:25:13.292Z,944
2023-01-17T11:30:43.753Z,965
2023-01-17T11:36:14.195Z,962
2023-01-17T11:41:44.799Z,960
2023-01-17T11:47:15.251Z,962
2023-01-17T11:52:44.724Z,956
2023-01-17T11:58:15.237Z,950
2023-01-17T12:03:45.708Z,952
2023-01-17T12:09:16.275Z,952
2023-01-17T12:14:46.779Z,946
2023-01-17T12:20:16.232Z,939
2023-01-17T12:25:46.697Z,937
2023-01-17T12:31:17.350Z,937
2023-01-17T12:36:49.357Z,942
2023-01-17T12:42:18.257Z,951
2023-01-17T12:47:48.745Z,954
2023-01-17T12:53:19.358Z,950
2023-01-17T12:58:49.839Z,949
2023-01-17T13:04:19.348Z,937
2023-01-17T13:09:49.798Z,927
2023-01-17T13:15:20.265Z,932
2023-01-17T13:20:49.785Z,931
2023-01-17T13:26:20.345Z,933
2023-01-17T13:31:50.942Z,935
2023-01-17T13:37:20.367Z,936
2023-01-17T13:42:50.815Z,939
2023-01-17T13:48:21.299Z,947
2023-01-17T13:53:51.916Z,1017
2023-01-17T13:59:22.343Z,1023
2023-01-17T14:04:52.840Z,1023
2023-01-17T14:10:23.503Z,1030
2023-01-17T14:15:53.973Z,1039
2023-01-17T14:21:23.480Z,1050
2023-01-17T14:26:53.949Z,1066
2023-01-17T14:32:24.428Z,1072
2023-01-17T14:37:55.061Z,1074
2023-01-17T14:43:25.499Z,1091
2023-01-17T14:48:56.088Z,1093
2023-01-17T14:54:26.652Z,1104
2023-01-17T14:59:57.176Z,1108
2023-01-17T15:05:27.743Z,1111
2023-01-17T15:10:58.227Z,1117
2023-01-17T15:16:28.921Z,1124
2023-01-17T15:21:59.407Z,1126
2023-01-17T15:27:29.874Z,1150
2023-01-17T15:33:00.396Z,1155
2023-01-17T15:38:38.574Z,1167
2023-01-17T15:44:01.457Z,1173
2023-01-17T15:49:31.957Z,1171
2023-01-17T15:55:02.525Z,1167
2023-01-17T16:00:33.013Z,1173
2023-01-17T16:06:03.515Z,1174
2023-01-17T16:11:32.979Z,1176
2023-01-17T16:17:03.525Z,1168
2023-01-17T16:22:32.969Z,1167
2023-01-17T16:28:03.423Z,1175
2023-01-17T16:33:33.914Z,1172
2023-01-17T16:39:04.570Z,1169
2023-01-17T16:44:34.971Z,1161
2023-01-17T16:51:11.562Z,1152
2023-01-17T16:56:42.187Z,1150
2023-01-17T17:02:12.789Z,1134
2023-01-17T17:07:42.107Z,1133
2023-01-17T17:13:12.629Z,1133
2023-01-17T17:18:43.215Z,1127
2023-01-17T17:24:13.705Z,1115
2023-01-17T17:29:44.233Z,1111
2023-01-17T17:35:13.681Z,1105
2023-01-17T17:40:44.181Z,1099
2023-01-17T17:46:13.730Z,1099
2023-01-17T17:51:44.153Z,1094
2023-01-17T17:57:14.619Z,1090
2023-01-17T18:02:45.235Z,1085
2023-01-17T18:08:15.692Z,1078
2023-01-17T18:13:46.181Z,1063
2023-01-17T18:19:15.702Z,1064
2023-01-17T18:24:46.177Z,1061
2023-01-17T18:30:16.757Z,1058
2023-01-17T18:35:47.250Z,1055
2023-01-17T18:41:17.796Z,1043
2023-01-17T18:46:48.343Z,1036
2023-01-17T18:52:18.859Z,1028
2023-01-17T18:57:49.324Z,1028
2023-01-17T19:03:19.896Z,1021
2023-01-17T19:08:50.514Z,1012
2023-01-17T19:14:19.984Z,1013
2023-01-17T19:19:50.461Z,1009
2023-01-17T19:25:20.981Z,998
2023-01-17T19:30:50.435Z,995
2023-01-17T19:36:20.938Z,989
2023-01-17T19:41:51.525Z,986
2023-01-17T19:47:21.972Z,983
2023-01-17T19:52:53.202Z,1050
2023-01-17T19:58:23.064Z,1115
2023-01-17T20:03:55.003Z,1184
2023-01-17T20:09:24.096Z,1202
2023-01-17T20:14:53.612Z,1274
2023-01-17T20:20:24.063Z,1259
2023-01-17T20:25:54.892Z,1306
2023-01-17T20:31:25.249Z,1323
2023-01-17T20:36:55.622Z,1333
2023-01-17T20:42:25.113Z,1359
2023-01-17T20:47:55.003Z,1397
2023-01-17T20:53:25.130Z,1325
2023-01-17T20:58:55.701Z,1377
2023-01-17T21:04:26.218Z,1442
2023-01-17T21:09:56.665Z,1444
2023-01-17T21:15:26.139Z,1439
2023-01-17T21:20:56.635Z,1495
2023-01-17T21:26:27.086Z,1473
2023-01-17T21:31:56.560Z,1456
2023-01-17T21:37:27.076Z,1428
2023-01-17T21:42:57.498Z,1439
2023-01-17T21:48:28.213Z,1418
2023-01-17T21:53:58.732Z,1410
2023-01-17T21:59:29.183Z,1466
2023-01-17T22:04:59.780Z,1466
2023-01-17T22:10:30.288Z,1456
2023-01-17T22:16:00.847Z,1456
2023-01-17T22:21:31.339Z,1440
2023-01-17T22:27:01.801Z,1441
2023-01-17T22:32:32.372Z,1457
2023-01-17T22:38:02.860Z,1466
2023-01-17T22:43:33.450Z,1453
2023-01-17T22:49:02.943Z,1455
2023-01-17T22:54:33.373Z,1438
2023-01-17T23:00:03.881Z,1464
2023-01-17T23:05:33.367Z,1475
2023-01-17T23:11:03.843Z,1483
2023-01-17T23:16:33.311Z,1458
2023-01-17T23:22:03.793Z,1425
2023-01-17T23:27:34.379Z,1406
2023-01-17T23:33:03.900Z,1438
2023-01-17T23:38:34.345Z,1492
2023-01-17T23:44:04.971Z,1478
2023-01-17T23:49:35.437Z,1507
2023-01-17T23:55:05.889Z,1503
